createdAt,value
2018-12-30T00:00:22.946Z,76.10
2018-12-30T00:03:27.950Z,76.10
2018-12-30T00:06:33.086Z,76.50
2018-12-30T00:09:38.610Z,77.00
2018-12-30T00:12:43.719Z,77.40
2018-12-30T00:15:49.016Z,77.20
2018-12-30T00:18:54.055Z,77.20
2018-12-30T00:21:59.161Z,77.10
2018-12-30T00:25:04.515Z,77.30
2018-12-30T00:28:09.510Z,77.40
2018-12-30T00:31:14.700Z,77.00
2018-12-30T00:34:19.797Z,76.90
2018-12-30T00:37:24.692Z,76.80
2018-12-30T00:40:29.728Z,76.90
2018-12-30T00:43:34.823Z,76.80
2018-12-30T00:46:40.439Z,76.70
2018-12-30T00:49:45.749Z,76.80
2018-12-30T00:52:50.927Z,77.30
2018-12-30T00:55:55.965Z,77.30
2018-12-30T00:59:01.180Z,77.10
2018-12-30T01:02:06.015Z,77.10
2018-12-30T01:05:11.481Z,77.10
2018-12-30T01:08:16.988Z,77.10
2018-12-30T01:11:22.162Z,77.30
2018-12-30T01:14:28.288Z,77.00
2018-12-30T01:17:33.196Z,77.10
2018-12-30T01:20:41.038Z,77.10
2018-12-30T01:23:45.922Z,77.30
2018-12-30T01:26:50.913Z,78.10
2018-12-30T01:30:14.918Z,78.50
2018-12-30T01:33:20.236Z,78.60
2018-12-30T01:36:25.227Z,77.80
2018-12-30T01:39:30.316Z,78.30
2018-12-30T01:42:35.518Z,77.50
2018-12-30T01:45:40.523Z,77.30
2018-12-30T01:48:45.774Z,77.40
2018-12-30T01:51:50.884Z,77.40
2018-12-30T01:54:55.876Z,77.60
2018-12-30T01:58:00.957Z,77.80
2018-12-30T02:01:05.961Z,77.90
2018-12-30T02:04:10.814Z,77.70
2018-12-30T02:07:15.711Z,77.70
2018-12-30T02:10:20.917Z,77.70
2018-12-30T02:13:25.910Z,77.70
2018-12-30T02:16:31.027Z,77.70
2018-12-30T02:19:35.895Z,77.70
2018-12-30T02:22:40.907Z,77.70
2018-12-30T02:25:46.036Z,77.60
2018-12-30T02:28:50.965Z,77.50
2018-12-30T02:31:55.913Z,77.60
2018-12-30T02:35:00.955Z,77.70
2018-12-30T02:38:06.214Z,77.60
2018-12-30T02:41:11.472Z,77.70
2018-12-30T02:44:16.453Z,77.70
2018-12-30T02:47:21.576Z,77.60
2018-12-30T02:50:26.769Z,77.40
2018-12-30T02:53:32.073Z,77.40
2018-12-30T02:56:37.034Z,77.30
2018-12-30T02:59:41.895Z,77.40
2018-12-30T03:02:46.838Z,77.50
2018-12-30T03:05:51.978Z,77.60
2018-12-30T03:08:57.158Z,77.60
2018-12-30T03:12:02.351Z,77.50
2018-12-30T03:15:10.425Z,77.40
2018-12-30T03:18:15.903Z,77.50
2018-12-30T03:21:21.103Z,77.80
2018-12-30T03:24:26.392Z,77.60
2018-12-30T03:27:31.321Z,77.80
2018-12-30T03:30:36.482Z,77.60
2018-12-30T03:33:41.491Z,77.70
2018-12-30T03:36:46.490Z,77.40
2018-12-30T03:39:51.460Z,77.40
2018-12-30T03:42:56.430Z,77.70
2018-12-30T03:46:01.691Z,77.90
2018-12-30T03:49:06.617Z,77.80
2018-12-30T03:52:11.649Z,77.80
2018-12-30T03:55:16.746Z,77.90
2018-12-30T03:58:21.726Z,77.70
2018-12-30T04:01:26.560Z,78.00
2018-12-30T04:04:32.247Z,78.10
2018-12-30T04:07:37.331Z,78.40
2018-12-30T04:10:42.301Z,79.00
2018-12-30T04:13:47.233Z,79.30
2018-12-30T04:16:52.073Z,79.10
2018-12-30T04:19:57.127Z,79.50
2018-12-30T04:23:02.272Z,79.80
2018-12-30T04:26:07.630Z,79.80
2018-12-30T04:29:12.613Z,79.70
2018-12-30T04:32:17.641Z,79.70
2018-12-30T04:35:22.637Z,79.80
2018-12-30T04:38:27.431Z,80.10
2018-12-30T04:41:32.184Z,80.20
2018-12-30T04:44:38.193Z,80.40
2018-12-30T04:47:43.272Z,80.50
2018-12-30T04:50:48.389Z,80.20
2018-12-30T04:53:53.548Z,80.10
2018-12-30T04:56:58.480Z,80.20
2018-12-30T05:00:03.524Z,80.00
2018-12-30T05:03:08.752Z,80.40
2018-12-30T05:06:13.768Z,80.70
2018-12-30T05:09:18.744Z,81.00
2018-12-30T05:12:23.778Z,80.90
2018-12-30T05:15:28.988Z,81.00
2018-12-30T05:18:34.292Z,80.90
2018-12-30T05:21:39.193Z,81.00
2018-12-30T05:24:44.058Z,81.10
2018-12-30T05:27:48.961Z,81.40
2018-12-30T05:30:54.213Z,81.60
2018-12-30T05:33:59.174Z,81.60
2018-12-30T05:37:04.300Z,81.80
2018-12-30T05:40:09.359Z,82.30
2018-12-30T05:43:14.299Z,82.20
2018-12-30T05:46:19.225Z,82.20
2018-12-30T05:49:24.423Z,82.40
2018-12-30T05:52:29.433Z,82.40
2018-12-30T05:55:34.497Z,82.40
2018-12-30T05:58:39.478Z,82.30
2018-12-30T06:01:44.316Z,82.20
2018-12-30T06:04:49.297Z,82.00
2018-12-30T06:07:54.475Z,81.90
2018-12-30T06:10:59.417Z,82.00
2018-12-30T06:14:04.571Z,81.90
2018-12-30T06:17:09.674Z,81.90
2018-12-30T06:20:14.644Z,81.60
2018-12-30T06:23:19.761Z,82.20
2018-12-30T06:26:24.940Z,81.90
2018-12-30T06:29:29.943Z,82.10
2018-12-30T06:32:34.937Z,81.80
2018-12-30T06:35:40.338Z,81.60
2018-12-30T06:38:45.493Z,81.50
2018-12-30T06:41:50.789Z,81.60
2018-12-30T06:44:55.767Z,81.50
2018-12-30T06:48:00.878Z,81.50
2018-12-30T06:51:06.029Z,81.60
2018-12-30T06:54:10.896Z,81.40
2018-12-30T06:57:16.030Z,81.40
2018-12-30T07:00:20.955Z,81.50
2018-12-30T07:03:25.922Z,81.00
2018-12-30T07:06:30.968Z,80.90
2018-12-30T07:09:36.058Z,80.70
2018-12-30T07:12:41.081Z,80.70
2018-12-30T07:15:46.226Z,81.30
2018-12-30T07:18:51.531Z,80.10
2018-12-30T07:21:56.421Z,79.80
2018-12-30T07:25:01.313Z,79.60
2018-12-30T07:28:06.334Z,79.60
2018-12-30T07:31:11.498Z,79.40
2018-12-30T07:34:16.412Z,78.80
2018-12-30T07:37:21.560Z,78.80
2018-12-30T07:40:26.571Z,78.50
2018-12-30T07:43:31.825Z,78.90
2018-12-30T07:46:36.934Z,78.60
2018-12-30T07:49:42.038Z,78.00
2018-12-30T07:52:47.145Z,77.90
2018-12-30T07:55:52.183Z,77.40
2018-12-30T07:58:57.294Z,76.90
2018-12-30T08:02:02.274Z,76.60
2018-12-30T08:05:07.214Z,76.50
2018-12-30T08:08:12.344Z,76.20
2018-12-30T08:11:17.379Z,75.80
2018-12-30T08:14:22.419Z,75.60
2018-12-30T08:17:27.250Z,75.30
2018-12-30T08:20:32.230Z,75.70
2018-12-30T08:23:36.921Z,75.60
2018-12-30T08:26:41.873Z,75.60
2018-12-30T08:29:46.819Z,75.30
2018-12-30T08:32:52.154Z,75.10
2018-12-30T08:35:57.181Z,75.00
2018-12-30T08:39:02.396Z,75.00
2018-12-30T08:42:08.441Z,74.70
2018-12-30T08:45:13.424Z,74.30
2018-12-30T08:48:18.266Z,73.80
2018-12-30T08:51:23.341Z,73.20
2018-12-30T08:54:28.341Z,72.60
2018-12-30T08:57:33.312Z,72.60
2018-12-30T09:00:38.487Z,72.50
2018-12-30T09:03:46.620Z,72.30
2018-12-30T09:06:52.145Z,71.20
2018-12-30T09:09:56.947Z,70.40
2018-12-30T09:13:02.072Z,69.20
2018-12-30T09:16:07.227Z,68.30
2018-12-30T09:19:12.136Z,67.60
2018-12-30T09:22:17.016Z,66.80
2018-12-30T09:25:21.910Z,65.40
2018-12-30T09:28:27.028Z,64.80
2018-12-30T09:31:32.019Z,64.50
2018-12-30T09:34:36.803Z,65.00
2018-12-30T09:37:41.847Z,64.80
2018-12-30T09:40:46.904Z,64.40
2018-12-30T09:43:51.857Z,63.60
2018-12-30T09:46:56.805Z,63.30
2018-12-30T09:50:01.883Z,64.10
2018-12-30T09:53:06.840Z,64.40
2018-12-30T09:56:12.040Z,64.60
2018-12-30T09:59:36.038Z,65.40
2018-12-30T10:02:41.942Z,65.90
2018-12-30T10:05:46.796Z,66.20
2018-12-30T10:08:51.636Z,68.20
2018-12-30T10:11:56.641Z,66.50
2018-12-30T10:15:09.344Z,65.30
2018-12-30T10:18:27.257Z,64.60
2018-12-30T10:21:32.240Z,63.70
2018-12-30T10:24:37.248Z,63.00
2018-12-30T10:27:42.380Z,62.10
2018-12-30T10:30:47.470Z,61.30
2018-12-30T10:33:52.424Z,60.90
2018-12-30T10:36:57.357Z,60.30
2018-12-30T10:40:02.568Z,60.70
2018-12-30T10:43:07.605Z,60.30
2018-12-30T10:46:12.675Z,59.90
2018-12-30T10:49:17.608Z,59.70
2018-12-30T10:52:22.660Z,58.80
2018-12-30T10:55:27.736Z,58.30
2018-12-30T10:58:32.926Z,58.50
2018-12-30T11:01:38.032Z,59.50
2018-12-30T11:04:43.136Z,58.30
2018-12-30T11:07:48.322Z,56.50
2018-12-30T11:10:53.493Z,54.80
2018-12-30T11:13:58.587Z,54.10
2018-12-30T11:17:03.768Z,54.10
2018-12-30T11:20:08.940Z,54.50
2018-12-30T11:23:13.734Z,54.10
2018-12-30T11:26:18.682Z,55.00
2018-12-30T11:29:23.649Z,55.20
2018-12-30T11:32:29.369Z,55.40
2018-12-30T11:35:34.185Z,56.90
2018-12-30T11:38:39.206Z,56.70
2018-12-30T11:41:44.207Z,56.90
2018-12-30T11:44:49.245Z,55.70
2018-12-30T11:47:54.147Z,49.70
2018-12-30T11:50:59.204Z,45.00
2018-12-30T11:54:04.133Z,39.50
2018-12-30T11:57:27.900Z,37.40
2018-12-30T12:00:32.892Z,35.80
2018-12-30T12:03:37.988Z,37.30
2018-12-30T12:06:43.103Z,40.20
2018-12-30T12:09:48.209Z,42.00
2018-12-30T12:12:53.089Z,44.20
2018-12-30T12:15:58.083Z,46.30
2018-12-30T12:19:03.391Z,48.30
2018-12-30T12:22:08.428Z,50.20
2018-12-30T12:25:13.263Z,51.20
2018-12-30T12:28:18.295Z,50.50
2018-12-30T12:31:23.425Z,49.60
2018-12-30T12:34:28.378Z,47.60
2018-12-30T12:37:33.320Z,47.30
2018-12-30T12:40:38.482Z,43.00
2018-12-30T12:43:43.452Z,35.70
2018-12-30T12:46:48.442Z,29.60
2018-12-30T12:49:53.533Z,25.10
2018-12-30T12:52:58.544Z,23.70
2018-12-30T12:56:03.468Z,22.40
2018-12-30T12:59:08.537Z,22.40
2018-12-30T13:02:13.576Z,22.60
2018-12-30T13:05:18.757Z,23.60
2018-12-30T13:08:23.687Z,26.80
2018-12-30T13:11:28.653Z,29.70
2018-12-30T13:14:33.651Z,32.00
2018-12-30T13:17:38.465Z,35.30
2018-12-30T13:20:43.540Z,38.60
2018-12-30T13:23:48.732Z,42.30
2018-12-30T13:26:53.661Z,44.20
2018-12-30T13:29:58.608Z,43.80
2018-12-30T13:33:03.556Z,44.00
2018-12-30T13:36:11.050Z,45.40
2018-12-30T13:39:16.161Z,46.30
2018-12-30T13:42:21.112Z,47.20
2018-12-30T13:45:26.132Z,48.50
2018-12-30T13:48:31.383Z,49.40
2018-12-30T13:51:36.493Z,50.20
2018-12-30T13:54:47.647Z,51.70
2018-12-30T13:57:48.696Z,52.90
2018-12-30T14:00:53.775Z,53.00
2018-12-30T14:03:58.746Z,53.20
2018-12-30T14:07:03.862Z,52.80
2018-12-30T14:10:09.613Z,51.40
2018-12-30T14:13:14.715Z,50.10
2018-12-30T14:16:19.715Z,50.80
2018-12-30T14:19:24.834Z,50.50
2018-12-30T14:22:29.930Z,50.70
2018-12-30T14:25:34.861Z,50.80
2018-12-30T14:28:40.058Z,50.90
2018-12-30T14:31:45.005Z,50.90
2018-12-30T14:34:50.045Z,50.90
2018-12-30T14:38:01.267Z,50.90
2018-12-30T14:41:06.306Z,50.60
2018-12-30T14:44:11.497Z,49.90
2018-12-30T14:47:16.642Z,49.90
2018-12-30T14:50:21.887Z,51.00
2018-12-30T14:53:26.876Z,51.40
2018-12-30T14:56:31.936Z,51.90
2018-12-30T14:59:37.198Z,51.70
2018-12-30T15:02:42.324Z,51.80
2018-12-30T15:05:47.244Z,51.90
2018-12-30T15:08:54.299Z,52.30
2018-12-30T15:11:59.657Z,52.60
2018-12-30T15:15:04.745Z,52.70
2018-12-30T15:18:09.648Z,53.00
2018-12-30T15:21:14.611Z,53.10
2018-12-30T15:24:19.479Z,53.60
2018-12-30T15:27:24.512Z,54.00
2018-12-30T15:30:29.467Z,53.70
2018-12-30T15:33:53.271Z,53.60
2018-12-30T15:36:58.304Z,53.80
2018-12-30T15:40:03.224Z,54.20
2018-12-30T15:43:08.218Z,54.00
2018-12-30T15:46:13.356Z,54.10
2018-12-30T15:49:18.297Z,54.10
2018-12-30T15:52:23.461Z,54.10
2018-12-30T15:55:28.353Z,54.00
2018-12-30T15:58:33.289Z,54.00
2018-12-30T16:01:38.257Z,54.10
2018-12-30T16:04:43.137Z,54.10
2018-12-30T16:07:48.073Z,54.50
2018-12-30T16:10:53.415Z,54.80
2018-12-30T16:13:58.435Z,55.10
2018-12-30T16:17:05.116Z,54.80
2018-12-30T16:20:10.681Z,54.70
2018-12-30T16:23:16.109Z,54.70
2018-12-30T16:26:40.424Z,54.80
2018-12-30T16:29:45.626Z,54.30
2018-12-30T16:32:50.472Z,54.00
2018-12-30T16:35:55.479Z,53.80
2018-12-30T16:39:00.628Z,53.80
2018-12-30T16:42:05.541Z,53.80
2018-12-30T16:45:10.730Z,53.80
2018-12-30T16:48:15.697Z,53.60
2018-12-30T16:51:20.489Z,53.80
2018-12-30T16:54:25.487Z,53.90
2018-12-30T16:57:30.652Z,53.90
2018-12-30T17:00:35.637Z,53.10
2018-12-30T17:03:40.676Z,53.20
2018-12-30T17:06:45.614Z,53.00
2018-12-30T17:09:50.638Z,53.40
2018-12-30T17:12:56.018Z,53.50
2018-12-30T17:16:01.056Z,53.30
2018-12-30T17:19:06.029Z,53.10
2018-12-30T17:22:11.081Z,53.20
2018-12-30T17:25:16.317Z,53.30
2018-12-30T17:28:21.310Z,53.30
2018-12-30T17:31:26.370Z,53.50
2018-12-30T17:34:31.574Z,53.30
2018-12-30T17:37:39.609Z,53.70
2018-12-30T17:40:44.475Z,53.10
2018-12-30T17:43:49.561Z,53.60
2018-12-30T17:46:54.743Z,53.60
2018-12-30T17:49:59.704Z,53.50
2018-12-30T17:53:04.758Z,53.40
2018-12-30T17:56:10.017Z,53.30
2018-12-30T17:59:15.415Z,53.40
2018-12-30T18:02:20.810Z,53.10
2018-12-30T18:05:25.766Z,53.20
2018-12-30T18:08:30.661Z,53.00
2018-12-30T18:11:35.671Z,54.40
2018-12-30T18:14:40.724Z,57.00
2018-12-30T18:17:45.689Z,53.80
2018-12-30T18:20:50.773Z,53.20
2018-12-30T18:23:56.045Z,52.70
2018-12-30T18:27:00.982Z,52.00
2018-12-30T18:30:06.936Z,52.10
2018-12-30T18:33:12.031Z,52.30
2018-12-30T18:36:17.026Z,52.30
2018-12-30T18:39:21.918Z,52.10
2018-12-30T18:42:29.084Z,51.70
2018-12-30T18:45:34.323Z,51.90
2018-12-30T18:48:39.226Z,51.80
2018-12-30T18:51:44.368Z,51.60
2018-12-30T18:54:49.497Z,51.30
2018-12-30T18:57:54.605Z,52.10
2018-12-30T19:00:59.845Z,51.40
2018-12-30T19:04:04.996Z,51.30
2018-12-30T19:07:10.142Z,51.40
2018-12-30T19:10:14.915Z,51.30
2018-12-30T19:13:19.644Z,51.50
2018-12-30T19:16:26.479Z,51.70
2018-12-30T19:19:31.580Z,51.50
2018-12-30T19:22:36.935Z,51.60
2018-12-30T19:25:41.947Z,51.70
2018-12-30T19:28:47.178Z,51.50
2018-12-30T19:31:52.101Z,51.50
2018-12-30T19:34:57.001Z,51.90
2018-12-30T19:38:02.168Z,51.60
2018-12-30T19:41:07.066Z,51.80
2018-12-30T19:44:12.367Z,51.90
2018-12-30T19:47:17.680Z,51.80
2018-12-30T19:50:22.604Z,52.00
2018-12-30T19:53:27.718Z,52.30
2018-12-30T19:56:32.829Z,52.30
2018-12-30T19:59:37.685Z,52.10
2018-12-30T20:02:42.772Z,51.90
2018-12-30T20:05:47.881Z,52.10
2018-12-30T20:08:52.860Z,52.00
2018-12-30T20:11:57.919Z,51.80
2018-12-30T20:15:02.930Z,51.70
2018-12-30T20:18:07.780Z,51.70
2018-12-30T20:21:12.820Z,51.50
2018-12-30T20:24:17.864Z,51.50
2018-12-30T20:27:22.893Z,51.70
2018-12-30T20:30:28.165Z,51.90
2018-12-30T20:33:33.377Z,51.80
2018-12-30T20:36:38.472Z,51.90
2018-12-30T20:39:43.633Z,52.10
2018-12-30T20:42:48.490Z,52.20
2018-12-30T20:45:59.117Z,52.10
2018-12-30T20:49:04.194Z,51.80
2018-12-30T20:52:09.152Z,51.80
2018-12-30T20:55:14.093Z,51.80
2018-12-30T20:58:19.194Z,51.90
2018-12-30T21:01:24.362Z,51.80
2018-12-30T21:04:29.231Z,52.10
2018-12-30T21:07:34.084Z,51.70
2018-12-30T21:10:39.238Z,52.10
2018-12-30T21:13:44.238Z,51.70
2018-12-30T21:16:49.576Z,51.80
2018-12-30T21:19:54.569Z,51.90
2018-12-30T21:22:59.564Z,52.00
2018-12-30T21:26:04.642Z,52.00
2018-12-30T21:29:09.738Z,52.40
2018-12-30T21:32:14.641Z,52.30
2018-12-30T21:35:19.624Z,52.10
2018-12-30T21:38:24.621Z,52.50
2018-12-30T21:41:29.769Z,52.20
2018-12-30T21:44:34.806Z,52.30
2018-12-30T21:47:40.072Z,53.30
2018-12-30T21:50:45.132Z,52.90
2018-12-30T21:53:50.254Z,52.70
2018-12-30T21:56:55.275Z,53.10
2018-12-30T22:00:00.296Z,52.90
2018-12-30T22:03:05.217Z,53.10
2018-12-30T22:06:10.461Z,53.40
2018-12-30T22:09:15.601Z,53.60
2018-12-30T22:12:20.572Z,53.90
2018-12-30T22:15:25.427Z,53.90
2018-12-30T22:18:30.465Z,53.90
2018-12-30T22:21:35.473Z,53.90
2018-12-30T22:24:40.710Z,54.10
2018-12-30T22:27:45.654Z,54.80
2018-12-30T22:30:50.902Z,55.20
2018-12-30T22:33:55.931Z,55.30
2018-12-30T22:37:00.813Z,55.40
2018-12-30T22:40:06.202Z,55.50
2018-12-30T22:43:11.238Z,55.80
2018-12-30T22:46:17.859Z,56.30
2018-12-30T22:49:23.962Z,56.30
2018-12-30T22:52:29.213Z,56.70
2018-12-30T22:55:34.392Z,56.90
2018-12-30T22:58:39.508Z,56.90
2018-12-30T23:01:47.067Z,56.90
2018-12-30T23:04:52.377Z,57.10
2018-12-30T23:07:57.329Z,57.50
2018-12-30T23:11:02.304Z,57.80
2018-12-30T23:14:07.790Z,57.90
2018-12-30T23:17:12.821Z,58.00
2018-12-30T23:20:17.728Z,58.20
2018-12-30T23:23:22.613Z,58.30
2018-12-30T23:26:27.567Z,58.50
2018-12-30T23:29:32.666Z,58.80
2018-12-30T23:32:37.943Z,59.10
2018-12-30T23:35:42.883Z,59.40
2018-12-30T23:38:47.887Z,59.40
2018-12-30T23:41:52.837Z,59.40
2018-12-30T23:44:57.778Z,59.40
2018-12-30T23:48:02.730Z,59.50
2018-12-30T23:51:07.883Z,59.70
2018-12-30T23:54:12.853Z,59.70
2018-12-30T23:57:18.007Z,59.70
